sensor_id;sensor_type;location;lat;lon;timestamp;pressure;altitude;pressure_sealevel;temperature;humidity
54389;BME280;40975;50.390;8.640;2023-04-22T00:01:21;98461.19;;;7.59;100.00
54389;BME280;40975;50.390;8.640;2023-04-22T00:03:49;98465.09;;;7.55;100.00
54389;BME280;40975;50.390;8.640;2023-04-22T00:06:14;98457.56;;;7.60;100.00
54389;BME280;40975;50.390;8.640;2023-04-22T00:08:40;98464.13;;;7.56;100.00
54389;BME280;40975;50.390;8.640;2023-04-22T00:11:05;98454.81;;;7.52;100.00
54389;BME280;40975;50.390;8.640;2023-04-22T00:13:30;98450.13;;;7.46;100.00
54389;BME280;40975;50.390;8.640;2023-04-22T00:15:56;98445.78;;;7.55;100.00
54389;BME280;40975;50.390;8.640;2023-04-22T00:18:22;98451.06;;;7.55;100.00
54389;BME280;40975;50.390;8.640;2023-04-22T00:20:47;98452.47;;;7.49;100.00
54389;BME280;40975;50.390;8.640;2023-04-22T00:23:12;98455.25;;;7.47;100.00
54389;BME280;40975;50.390;8.640;2023-04-22T00:25:39;98452.19;;;7.52;100.00
54389;BME280;40975;50.390;8.640;2023-04-22T00:28:05;98452.63;;;7.47;100.00
54389;BME280;40975;50.390;8.640;2023-04-22T00:30:30;98447.97;;;7.59;100.00
54389;BME280;40975;50.390;8.640;2023-04-22T00:32:56;98453.84;;;7.63;100.00
54389;BME280;40975;50.390;8.640;2023-04-22T00:35:21;98453.16;;;7.61;100.00
54389;BME280;40975;50.390;8.640;2023-04-22T00:37:46;98443.84;;;7.57;100.00
54389;BME280;40975;50.390;8.640;2023-04-22T00:40:12;98440.06;;;7.59;100.00
54389;BME280;40975;50.390;8.640;2023-04-22T00:42:37;98446.88;;;7.62;100.00
54389;BME280;40975;50.390;8.640;2023-04-22T00:45:09;98445.75;;;7.65;100.00
54389;BME280;40975;50.390;8.640;2023-04-22T00:47:35;98447.56;;;7.64;100.00
54389;BME280;40975;50.390;8.640;2023-04-22T00:50:01;98446.88;;;7.62;100.00
54389;BME280;40975;50.390;8.640;2023-04-22T00:52:27;98458.97;;;7.55;100.00
54389;BME280;40975;50.390;8.640;2023-04-22T00:54:52;98451.06;;;7.55;100.00
54389;BME280;40975;50.390;8.640;2023-04-22T00:57:18;98454.53;;;7.55;100.00
54389;BME280;40975;50.390;8.640;2023-04-22T00:59:44;98450.94;;;7.46;100.00
54389;BME280;40975;50.390;8.640;2023-04-22T01:02:10;98444.00;;;7.45;100.00
54389;BME280;40975;50.390;8.640;2023-04-22T01:04:35;98451.53;;;7.40;100.00
54389;BME280;40975;50.390;8.640;2023-04-22T01:07:01;98448.75;;;7.42;100.00
54389;BME280;40975;50.390;8.640;2023-04-22T01:09:26;98453.16;;;7.51;100.00
54389;BME280;40975;50.390;8.640;2023-04-22T01:11:53;98460.38;;;7.49;100.00
54389;BME280;40975;50.390;8.640;2023-04-22T01:14:18;98454.00;;;7.52;100.00
54389;BME280;40975;50.390;8.640;2023-04-22T01:16:44;98455.53;;;7.54;100.00
54389;BME280;40975;50.390;8.640;2023-04-22T01:19:10;98455.09;;;7.49;100.00
54389;BME280;40975;50.390;8.640;2023-04-22T01:21:37;98449.81;;;7.49;100.00
54389;BME280;40975;50.390;8.640;2023-04-22T01:24:03;98445.13;;;7.43;100.00
54389;BME280;40975;50.390;8.640;2023-04-22T01:26:29;98448.88;;;7.40;100.00
54389;BME280;40975;50.390;8.640;2023-04-22T01:28:54;98450.84;;;7.38;100.00
54389;BME280;40975;50.390;8.640;2023-04-22T01:31:20;98447.91;;;7.41;100.00
54389;BME280;40975;50.390;8.640;2023-04-22T01:33:46;98454.56;;;7.45;100.00
54389;BME280;40975;50.390;8.640;2023-04-22T01:36:12;98445.97;;;7.43;100.00
54389;BME280;40975;50.390;8.640;2023-04-22T01:38:38;98455.00;;;7.41;100.00
54389;BME280;40975;50.390;8.640;2023-04-22T01:41:04;98459.03;;;7.45;100.00
54389;BME280;40975;50.390;8.640;2023-04-22T01:43:29;98457.34;;;7.44;100.00
54389;BME280;40975;50.390;8.640;2023-04-22T01:45:56;98458.75;;;7.48;100.00
54389;BME280;40975;50.390;8.640;2023-04-22T01:48:21;98451.25;;;7.43;100.00
54389;BME280;40975;50.390;8.640;2023-04-22T01:50:47;98464.16;;;7.46;100.00
54389;BME280;40975;50.390;8.640;2023-04-22T01:53:12;98459.72;;;7.37;100.00
54389;BME280;40975;50.390;8.640;2023-04-22T01:55:37;98461.66;;;7.35;100.00
54389;BME280;40975;50.390;8.640;2023-04-22T01:58:04;98463.34;;;7.36;100.00
54389;BME280;40975;50.390;8.640;2023-04-22T02:00:30;98457.34;;;7.34;100.00
54389;BME280;40975;50.390;8.640;2023-04-22T02:02:55;98456.53;;;7.24;100.00
54389;BME280;40975;50.390;8.640;2023-04-22T02:05:22;98472.69;;;7.21;100.00
54389;BME280;40975;50.390;8.640;2023-04-22T02:07:51;98474.47;;;7.20;100.00
54389;BME280;40975;50.390;8.640;2023-04-22T02:10:16;98471.16;;;7.18;100.00
54389;BME280;40975;50.390;8.640;2023-04-22T02:12:42;98466.56;;;7.30;100.00
54389;BME280;40975;50.390;8.640;2023-04-22T02:15:08;98470.00;;;7.30;100.00
54389;BME280;40975;50.390;8.640;2023-04-22T02:17:34;98466.28;;;7.33;100.00
54389;BME280;40975;50.390;8.640;2023-04-22T02:20:00;98461.13;;;7.31;100.00
54389;BME280;40975;50.390;8.640;2023-04-22T02:22:28;98472.38;;;7.34;100.00
54389;BME280;40975;50.390;8.640;2023-04-22T02:24:54;98470.44;;;7.36;100.00
54389;BME280;40975;50.390;8.640;2023-04-22T02:27:20;98469.47;;;7.37;100.00
54389;BME280;40975;50.390;8.640;2023-04-22T02:29:46;98457.50;;;7.32;100.00
54389;BME280;40975;50.390;8.640;2023-04-22T02:32:13;98474.75;;;7.37;100.00
54389;BME280;40975;50.390;8.640;2023-04-22T02:34:41;98479.72;;;7.40;100.00
54389;BME280;40975;50.390;8.640;2023-04-22T02:37:06;98465.59;;;7.31;100.00
54389;BME280;40975;50.390;8.640;2023-04-22T02:39:32;98468.50;;;7.38;100.00
54389;BME280;40975;50.390;8.640;2023-04-22T02:41:57;98460.00;;;7.34;100.00
54389;BME280;40975;50.390;8.640;2023-04-22T02:44:23;98458.47;;;7.31;100.00
54389;BME280;40975;50.390;8.640;2023-04-22T02:46:48;98451.69;;;7.29;100.00
54389;BME280;40975;50.390;8.640;2023-04-22T02:49:14;98455.16;;;7.29;100.00
54389;BME280;40975;50.390;8.640;2023-04-22T02:51:39;98451.84;;;7.27;100.00
54389;BME280;40975;50.390;8.640;2023-04-22T02:54:04;98452.81;;;7.26;100.00
54389;BME280;40975;50.390;8.640;2023-04-22T02:56:30;98443.91;;;7.27;100.00
54389;BME280;40975;50.390;8.640;2023-04-22T02:58:56;98445.16;;;7.23;100.00
54389;BME280;40975;50.390;8.640;2023-04-22T03:01:21;98447.94;;;7.31;100.00
54389;BME280;40975;50.390;8.640;2023-04-22T03:03:47;98452.94;;;7.35;100.00
54389;BME280;40975;50.390;8.640;2023-04-22T03:06:18;98452.50;;;7.39;100.00
54389;BME280;40975;50.390;8.640;2023-04-22T03:08:43;98453.75;;;7.45;100.00
54389;BME280;40975;50.390;8.640;2023-04-22T03:11:09;98450.41;;;7.43;100.00
54389;BME280;40975;50.390;8.640;2023-04-22T03:13:34;98454.88;;;7.42;100.00
54389;BME280;40975;50.390;8.640;2023-04-22T03:16:00;98452.22;;;7.42;100.00
54389;BME280;40975;50.390;8.640;2023-04-22T03:18:25;98445.28;;;7.41;100.00
54389;BME280;40975;50.390;8.640;2023-04-22T03:20:51;98457.63;;;7.41;100.00
54389;BME280;40975;50.390;8.640;2023-04-22T03:23:17;98450.13;;;7.36;100.00
54389;BME280;40975;50.390;8.640;2023-04-22T03:25:42;98456.28;;;7.37;100.00
54389;BME280;40975;50.390;8.640;2023-04-22T03:28:07;98464.31;;;7.35;100.00
54389;BME280;40975;50.390;8.640;2023-04-22T03:30:33;98458.47;;;7.31;100.00
54389;BME280;40975;50.390;8.640;2023-04-22T03:32:58;98457.66;;;7.31;100.00
54389;BME280;40975;50.390;8.640;2023-04-22T03:35:47;98451.41;;;7.22;100.00
54389;BME280;40975;50.390;8.640;2023-04-22T03:38:13;98446.00;;;7.04;100.00
54389;BME280;40975;50.390;8.640;2023-04-22T03:40:41;98449.38;;;6.96;100.00
54389;BME280;40975;50.390;8.640;2023-04-22T03:43:17;98461.16;;;6.92;100.00
54389;BME280;40975;50.390;8.640;2023-04-22T03:45:50;98440.75;;;6.84;100.00
54389;BME280;40975;50.390;8.640;2023-04-22T03:48:21;98441.44;;;6.87;100.00
54389;BME280;40975;50.390;8.640;2023-04-22T03:50:49;98444.78;;;6.89;100.00
54389;BME280;40975;50.390;8.640;2023-04-22T03:53:15;98447.44;;;6.89;100.00
54389;BME280;40975;50.390;8.640;2023-04-22T03:55:41;98445.88;;;6.96;100.00
54389;BME280;40975;50.390;8.640;2023-04-22T03:58:06;98451.72;;;6.99;100.00
54389;BME280;40975;50.390;8.640;2023-04-22T04:00:32;98452.84;;;6.97;100.00
54389;BME280;40975;50.390;8.640;2023-04-22T04:03:07;98457.69;;;7.02;100.00
54389;BME280;40975;50.390;8.640;2023-04-22T04:05:33;98463.81;;;7.02;100.00
54389;BME280;40975;50.390;8.640;2023-04-22T04:07:58;98464.47;;;7.04;100.00
54389;BME280;40975;50.390;8.640;2023-04-22T04:10:24;98451.72;;;6.99;100.00
54389;BME280;40975;50.390;8.640;2023-04-22T04:12:51;98456.88;;;7.01;100.00
54389;BME280;40975;50.390;8.640;2023-04-22T04:15:19;98459.63;;;6.99;100.00
54389;BME280;40975;50.390;8.640;2023-04-22T04:17:47;98458.09;;;6.97;100.00
54389;BME280;40975;50.390;8.640;2023-04-22T04:20:14;98468.25;;;6.92;100.00
54389;BME280;40975;50.390;8.640;2023-04-22T04:22:40;98459.22;;;6.94;100.00
54389;BME280;40975;50.390;8.640;2023-04-22T04:25:07;98457.41;;;6.95;100.00
54389;BME280;40975;50.390;8.640;2023-04-22T04:27:36;98456.59;;;6.94;100.00
54389;BME280;40975;50.390;8.640;2023-04-22T04:30:04;98447.72;;;6.95;100.00
54389;BME280;40975;50.390;8.640;2023-04-22T04:32:39;98451.88;;;6.98;100.00
54389;BME280;40975;50.390;8.640;2023-04-22T04:35:08;98443.25;;;6.96;100.00
54389;BME280;40975;50.390;8.640;2023-04-22T04:37:34;98447.69;;;7.05;100.00
54389;BME280;40975;50.390;8.640;2023-04-22T04:40:06;98437.81;;;7.07;100.00
54389;BME280;40975;50.390;8.640;2023-04-22T04:42:54;98452.13;;;7.14;100.00
54389;BME280;40975;50.390;8.640;2023-04-22T04:45:28;98448.06;;;7.20;100.00
54389;BME280;40975;50.390;8.640;2023-04-22T04:47:55;98445.00;;;7.25;100.00
54389;BME280;40975;50.390;8.640;2023-04-22T04:50:29;98441.28;;;7.27;100.00
54389;BME280;40975;50.390;8.640;2023-04-22T04:52:59;98433.22;;;7.29;100.00
54389;BME280;40975;50.390;8.640;2023-04-22T04:55:31;98440.84;;;7.32;100.00
54389;BME280;40975;50.390;8.640;2023-04-22T04:57:57;98437.91;;;7.35;100.00
54389;BME280;40975;50.390;8.640;2023-04-22T05:00:23;98439.56;;;7.36;100.00
54389;BME280;40975;50.390;8.640;2023-04-22T05:02:48;98443.19;;;7.35;100.00
54389;BME280;40975;50.390;8.640;2023-04-22T05:05:13;98432.19;;;7.40;100.00
54389;BME280;40975;50.390;8.640;2023-04-22T05:07:41;98441.25;;;7.37;100.00
54389;BME280;40975;50.390;8.640;2023-04-22T05:10:07;98436.66;;;7.39;100.00
54389;BME280;40975;50.390;8.640;2023-04-22T05:12:34;98438.34;;;7.40;100.00
54389;BME280;40975;50.390;8.640;2023-04-22T05:14:59;98437.34;;;7.41;100.00
54389;BME280;40975;50.390;8.640;2023-04-22T05:17:26;98434.84;;;7.40;100.00
54389;BME280;40975;50.390;8.640;2023-04-22T05:19:52;98440.53;;;7.45;100.00
54389;BME280;40975;50.390;8.640;2023-04-22T05:22:17;98439.03;;;7.42;100.00
54389;BME280;40975;50.390;8.640;2023-04-22T05:24:43;98440.53;;;7.45;100.00
54389;BME280;40975;50.390;8.640;2023-04-22T05:27:09;98436.22;;;7.44;100.00
54389;BME280;40975;50.390;8.640;2023-04-22T05:29:35;98437.91;;;7.45;100.00
54389;BME280;40975;50.390;8.640;2023-04-22T05:32:02;98435.41;;;7.43;100.00
54389;BME280;40975;50.390;8.640;2023-04-22T05:34:28;98439.13;;;7.51;100.00
54389;BME280;40975;50.390;8.640;2023-04-22T05:36:54;98443.28;;;7.53;100.00
54389;BME280;40975;50.390;8.640;2023-04-22T05:39:19;98439.94;;;7.61;100.00
54389;BME280;40975;50.390;8.640;2023-04-22T05:41:45;98431.84;;;7.62;100.00
54389;BME280;40975;50.390;8.640;2023-04-22T05:44:10;98441.59;;;7.62;100.00
54389;BME280;40975;50.390;8.640;2023-04-22T05:46:36;98441.28;;;7.65;100.00
54389;BME280;40975;50.390;8.640;2023-04-22T05:49:03;98452.00;;;7.73;100.00
54389;BME280;40975;50.390;8.640;2023-04-22T05:51:46;98454.44;;;7.85;100.00
54389;BME280;40975;50.390;8.640;2023-04-22T05:54:15;98447.72;;;7.90;100.00
54389;BME280;40975;50.390;8.640;2023-04-22T05:56:41;98458.97;;;8.02;100.00
54389;BME280;40975;50.390;8.640;2023-04-22T05:59:06;98447.78;;;8.08;100.00
54389;BME280;40975;50.390;8.640;2023-04-22T06:01:31;98471.03;;;8.33;100.00
54389;BME280;40975;50.390;8.640;2023-04-22T06:04:01;98446.34;;;8.42;100.00
54389;BME280;40975;50.390;8.640;2023-04-22T06:06:29;98458.28;;;8.92;100.00
54389;BME280;40975;50.390;8.640;2023-04-22T06:08:54;98461.34;;;9.76;100.00
54389;BME280;40975;50.390;8.640;2023-04-22T06:11:20;98465.41;;;9.97;100.00
54389;BME280;40975;50.390;8.640;2023-04-22T06:13:46;98462.59;;;9.99;100.00
54389;BME280;40975;50.390;8.640;2023-04-22T06:16:11;98466.13;;;10.07;100.00
54389;BME280;40975;50.390;8.640;2023-04-22T06:18:36;98463.31;;;10.17;100.00
54389;BME280;40975;50.390;8.640;2023-04-22T06:21:03;98471.72;;;10.39;100.00
54389;BME280;40975;50.390;8.640;2023-04-22T06:23:28;98470.97;;;10.88;100.00
54389;BME280;40975;50.390;8.640;2023-04-22T06:25:54;98469.50;;;11.51;100.00
54389;BME280;40975;50.390;8.640;2023-04-22T06:28:20;98480.00;;;11.93;100.00
54389;BME280;40975;50.390;8.640;2023-04-22T06:30:47;98478.06;;;12.35;100.00
54389;BME280;40975;50.390;8.640;2023-04-22T06:33:14;98474.25;;;12.84;100.00
54389;BME280;40975;50.390;8.640;2023-04-22T06:35:39;98471.25;;;12.87;100.00
54389;BME280;40975;50.390;8.640;2023-04-22T06:38:05;98470.19;;;12.96;100.00
54389;BME280;40975;50.390;8.640;2023-04-22T06:40:39;98460.09;;;13.30;100.00
54389;BME280;40975;50.390;8.640;2023-04-22T06:43:11;98466.69;;;13.57;100.00
54389;BME280;40975;50.390;8.640;2023-04-22T06:45:55;98454.75;;;13.98;100.00
54389;BME280;40975;50.390;8.640;2023-04-22T06:48:37;98453.94;;;13.97;100.00
54389;BME280;40975;50.390;8.640;2023-04-22T06:51:18;98459.13;;;14.36;99.15
54389;BME280;40975;50.390;8.640;2023-04-22T06:53:45;98464.22;;;14.82;97.33
54389;BME280;40975;50.390;8.640;2023-04-22T06:56:14;98464.25;;;14.89;96.50
54389;BME280;40975;50.390;8.640;2023-04-22T06:58:39;98467.63;;;14.61;99.28
54389;BME280;40975;50.390;8.640;2023-04-22T07:01:05;98465.25;;;14.66;99.12
54389;BME280;40975;50.390;8.640;2023-04-22T07:03:30;98462.78;;;15.08;97.20
54389;BME280;40975;50.390;8.640;2023-04-22T07:06:04;98453.16;;;16.47;88.57
54389;BME280;40975;50.390;8.640;2023-04-22T07:08:30;98450.22;;;17.04;83.65
54389;BME280;40975;50.390;8.640;2023-04-22T07:10:55;98447.94;;;17.48;80.92
54389;BME280;40975;50.390;8.640;2023-04-22T07:13:54;98451.19;;;17.91;73.64
54389;BME280;40975;50.390;8.640;2023-04-22T07:16:19;98447.50;;;18.83;69.62
54389;BME280;40975;50.390;8.640;2023-04-22T07:18:44;98444.59;;;18.84;67.85
54389;BME280;40975;50.390;8.640;2023-04-22T07:21:10;98441.50;;;18.42;66.78
54389;BME280;40975;50.390;8.640;2023-04-22T07:23:35;98450.38;;;17.83;71.15
54389;BME280;40975;50.390;8.640;2023-04-22T07:26:01;98446.94;;;17.29;72.35
54389;BME280;40975;50.390;8.640;2023-04-22T07:28:26;98447.50;;;16.91;76.47
54389;BME280;40975;50.390;8.640;2023-04-22T07:30:52;98434.16;;;17.18;75.33
54389;BME280;40975;50.390;8.640;2023-04-22T07:33:18;98445.84;;;16.90;74.31
54389;BME280;40975;50.390;8.640;2023-04-22T07:35:43;98437.59;;;16.85;77.74
54389;BME280;40975;50.390;8.640;2023-04-22T07:38:09;98441.31;;;16.90;78.71
54389;BME280;40975;50.390;8.640;2023-04-22T07:40:34;98443.53;;;16.73;78.31
54389;BME280;40975;50.390;8.640;2023-04-22T07:42:59;98444.75;;;16.51;78.47
54389;BME280;40975;50.390;8.640;2023-04-22T07:45:25;98453.47;;;16.86;80.85
54389;BME280;40975;50.390;8.640;2023-04-22T07:47:50;98443.00;;;17.05;79.28
54389;BME280;40975;50.390;8.640;2023-04-22T07:50:16;98453.31;;;17.15;79.42
54389;BME280;40975;50.390;8.640;2023-04-22T07:52:41;98443.34;;;16.75;78.74
54389;BME280;40975;50.390;8.640;2023-04-22T07:55:07;98442.88;;;16.51;78.08
54389;BME280;40975;50.390;8.640;2023-04-22T07:57:32;98438.25;;;16.93;78.95
54389;BME280;40975;50.390;8.640;2023-04-22T08:00:06;98440.72;;;17.49;76.31
54389;BME280;40975;50.390;8.640;2023-04-22T08:02:37;98456.03;;;18.73;73.45
54389;BME280;40975;50.390;8.640;2023-04-22T08:05:02;98445.16;;;19.00;71.99
54389;BME280;40975;50.390;8.640;2023-04-22T08:07:28;98444.75;;;18.96;73.04
54389;BME280;40975;50.390;8.640;2023-04-22T08:09:53;98442.50;;;19.18;72.42
54389;BME280;40975;50.390;8.640;2023-04-22T08:12:20;98438.56;;;19.21;66.51
54389;BME280;40975;50.390;8.640;2023-04-22T08:14:46;98427.84;;;19.39;64.26
54389;BME280;40975;50.390;8.640;2023-04-22T08:17:11;98441.13;;;19.78;62.44
54389;BME280;40975;50.390;8.640;2023-04-22T08:19:37;98433.31;;;20.14;61.56
54389;BME280;40975;50.390;8.640;2023-04-22T08:22:02;98426.72;;;20.59;58.42
54389;BME280;40975;50.390;8.640;2023-04-22T08:24:27;98435.56;;;22.15;56.31
54389;BME280;40975;50.390;8.640;2023-04-22T08:26:53;98446.00;;;22.64;52.92
54389;BME280;40975;50.390;8.640;2023-04-22T08:29:18;98444.66;;;22.67;54.17
54389;BME280;40975;50.390;8.640;2023-04-22T08:31:43;98453.66;;;23.02;53.06
54389;BME280;40975;50.390;8.640;2023-04-22T08:34:09;98450.47;;;23.73;51.83
54389;BME280;40975;50.390;8.640;2023-04-22T08:36:34;98450.03;;;23.98;48.49
54389;BME280;40975;50.390;8.640;2023-04-22T08:38:59;98449.47;;;24.90;47.19
54389;BME280;40975;50.390;8.640;2023-04-22T08:41:25;98448.75;;;25.33;44.79
54389;BME280;40975;50.390;8.640;2023-04-22T08:43:52;98444.03;;;25.23;44.64
54389;BME280;40975;50.390;8.640;2023-04-22T08:46:17;98441.13;;;24.97;45.61
54389;BME280;40975;50.390;8.640;2023-04-22T08:48:49;98436.66;;;25.51;43.66
54389;BME280;40975;50.390;8.640;2023-04-22T08:51:16;98441.78;;;25.42;43.75
54389;BME280;40975;50.390;8.640;2023-04-22T08:53:45;98434.41;;;25.05;43.90
54389;BME280;40975;50.390;8.640;2023-04-22T08:56:14;98432.13;;;24.42;44.63
54389;BME280;40975;50.390;8.640;2023-04-22T08:58:40;98435.75;;;23.47;47.72
54389;BME280;40975;50.390;8.640;2023-04-22T09:01:06;98436.13;;;24.12;45.75
54389;BME280;40975;50.390;8.640;2023-04-22T09:03:34;98436.09;;;23.89;46.06
54389;BME280;40975;50.390;8.640;2023-04-22T09:06:04;98439.59;;;23.00;48.76
54389;BME280;40975;50.390;8.640;2023-04-22T09:08:31;98427.69;;;22.14;51.55
54389;BME280;40975;50.390;8.640;2023-04-22T09:10:56;98428.22;;;21.87;50.63
54389;BME280;40975;50.390;8.640;2023-04-22T09:13:24;98427.88;;;21.83;50.78
54389;BME280;40975;50.390;8.640;2023-04-22T09:15:49;98434.44;;;23.32;49.68
54389;BME280;40975;50.390;8.640;2023-04-22T09:18:18;98431.66;;;23.44;47.40
54389;BME280;40975;50.390;8.640;2023-04-22T09:20:46;98424.34;;;22.64;49.42
54389;BME280;40975;50.390;8.640;2023-04-22T09:23:12;98427.13;;;23.33;49.60
54389;BME280;40975;50.390;8.640;2023-04-22T09:25:37;98426.22;;;23.61;49.59
54389;BME280;40975;50.390;8.640;2023-04-22T09:28:03;98421.84;;;23.77;49.92
54389;BME280;40975;50.390;8.640;2023-04-22T09:30:33;98421.94;;;24.27;49.01
54389;BME280;40975;50.390;8.640;2023-04-22T09:33:01;98422.84;;;24.60;47.74
54389;BME280;40975;50.390;8.640;2023-04-22T09:35:37;98419.00;;;25.43;46.04
54389;BME280;40975;50.390;8.640;2023-04-22T09:38:05;98416.50;;;24.76;47.03
54389;BME280;40975;50.390;8.640;2023-04-22T09:40:35;98422.72;;;23.83;48.53
54389;BME280;40975;50.390;8.640;2023-04-22T09:43:03;98425.50;;;23.32;49.75
54389;BME280;40975;50.390;8.640;2023-04-22T09:45:32;98428.66;;;22.94;51.50
54389;BME280;40975;50.390;8.640;2023-04-22T09:50:36;98417.53;;;21.33;56.71
54389;BME280;40975;50.390;8.640;2023-04-22T09:53:04;98418.88;;;20.88;57.18
54389;BME280;40975;50.390;8.640;2023-04-22T09:55:34;98416.34;;;21.05;57.50
54389;BME280;40975;50.390;8.640;2023-04-22T09:58:09;98416.00;;;21.49;58.62
54389;BME280;40975;50.390;8.640;2023-04-22T10:00:43;98420.72;;;22.59;55.88
54389;BME280;40975;50.390;8.640;2023-04-22T10:03:08;98417.53;;;23.08;53.09
54389;BME280;40975;50.390;8.640;2023-04-22T10:05:34;98427.06;;;22.64;53.85
54389;BME280;40975;50.390;8.640;2023-04-22T10:08:05;98420.22;;;21.92;56.74
54389;BME280;40975;50.390;8.640;2023-04-22T10:10:32;98422.81;;;21.51;56.82
54389;BME280;40975;50.390;8.640;2023-04-22T10:12:58;98416.94;;;21.31;58.94
54389;BME280;40975;50.390;8.640;2023-04-22T10:15:24;98412.81;;;21.87;56.75
54389;BME280;40975;50.390;8.640;2023-04-22T10:17:52;98406.84;;;21.38;55.31
54389;BME280;40975;50.390;8.640;2023-04-22T10:20:19;98419.88;;;21.77;56.41
54389;BME280;40975;50.390;8.640;2023-04-22T10:22:45;98419.97;;;22.34;53.03
54389;BME280;40975;50.390;8.640;2023-04-22T10:25:23;98412.56;;;22.42;52.43
54389;BME280;40975;50.390;8.640;2023-04-22T10:28:03;98414.41;;;23.16;51.98
54389;BME280;40975;50.390;8.640;2023-04-22T10:30:31;98410.47;;;22.90;53.88
54389;BME280;40975;50.390;8.640;2023-04-22T10:41:13;98406.38;;;23.38;50.83
54389;BME280;40975;50.390;8.640;2023-04-22T10:43:47;98401.47;;;24.41;46.36
54389;BME280;40975;50.390;8.640;2023-04-22T10:49:04;98405.56;;;22.58;60.86
54389;BME280;40975;50.390;8.640;2023-04-22T10:51:39;98407.75;;;23.58;54.43
54389;BME280;40975;50.390;8.640;2023-04-22T10:54:05;98404.22;;;23.57;46.89
54389;BME280;40975;50.390;8.640;2023-04-22T10:56:31;98401.72;;;23.34;46.92
54389;BME280;40975;50.390;8.640;2023-04-22T10:58:56;98406.97;;;23.80;54.84
54389;BME280;40975;50.390;8.640;2023-04-22T11:01:21;98390.72;;;23.80;50.05
54389;BME280;40975;50.390;8.640;2023-04-22T11:03:47;98391.00;;;23.22;53.01
54389;BME280;40975;50.390;8.640;2023-04-22T11:06:17;98388.09;;;22.48;52.57
54389;BME280;40975;50.390;8.640;2023-04-22T11:08:48;98381.00;;;22.30;53.19
54389;BME280;40975;50.390;8.640;2023-04-22T11:11:16;98382.97;;;22.35;53.38
54389;BME280;40975;50.390;8.640;2023-04-22T11:13:42;98375.97;;;21.57;60.35
54389;BME280;40975;50.390;8.640;2023-04-22T11:16:08;98388.84;;;22.03;56.08
54389;BME280;40975;50.390;8.640;2023-04-22T11:18:33;98379.88;;;22.14;56.61
54389;BME280;40975;50.390;8.640;2023-04-22T11:21:05;98375.75;;;22.12;54.60
54389;BME280;40975;50.390;8.640;2023-04-22T11:23:32;98382.81;;;22.54;57.67
54389;BME280;40975;50.390;8.640;2023-04-22T11:26:02;98374.22;;;22.16;52.87
54389;BME280;40975;50.390;8.640;2023-04-22T11:28:28;98370.84;;;22.09;54.40
54389;BME280;40975;50.390;8.640;2023-04-22T11:31:04;98374.69;;;22.54;54.62
54389;BME280;40975;50.390;8.640;2023-04-22T11:33:32;98368.38;;;22.48;53.53
54389;BME280;40975;50.390;8.640;2023-04-22T11:35:58;98371.09;;;22.82;53.34
54389;BME280;40975;50.390;8.640;2023-04-22T11:38:23;98371.03;;;22.77;54.70
54389;BME280;40975;50.390;8.640;2023-04-22T11:40:48;98366.19;;;22.33;52.58
54389;BME280;40975;50.390;8.640;2023-04-22T11:43:13;98375.19;;;22.67;51.10
54389;BME280;40975;50.390;8.640;2023-04-22T11:45:39;98372.28;;;23.20;52.09
54389;BME280;40975;50.390;8.640;2023-04-22T11:48:06;98364.44;;;23.41;50.85
54389;BME280;40975;50.390;8.640;2023-04-22T11:50:34;98366.38;;;23.23;45.91
54389;BME280;40975;50.390;8.640;2023-04-22T11:53:02;98365.59;;;22.60;46.70
54389;BME280;40975;50.390;8.640;2023-04-22T11:55:33;98360.78;;;22.33;52.72
54389;BME280;40975;50.390;8.640;2023-04-22T11:58:08;98346.66;;;22.60;47.67
54389;BME280;40975;50.390;8.640;2023-04-22T12:00:48;98354.16;;;22.70;49.04
54389;BME280;40975;50.390;8.640;2023-04-22T12:08:30;98340.44;;;22.76;51.32
54389;BME280;40975;50.390;8.640;2023-04-22T12:10:58;98341.28;;;22.77;51.12
54389;BME280;40975;50.390;8.640;2023-04-22T12:13:29;98345.13;;;22.81;50.34
54389;BME280;40975;50.390;8.640;2023-04-22T12:16:00;98335.47;;;22.39;52.90
54389;BME280;40975;50.390;8.640;2023-04-22T12:18:40;98330.66;;;22.12;50.19
54389;BME280;40975;50.390;8.640;2023-04-22T12:24:09;98326.78;;;21.79;52.19
54389;BME280;40975;50.390;8.640;2023-04-22T12:26:35;98331.56;;;22.18;51.82
54389;BME280;40975;50.390;8.640;2023-04-22T12:29:03;98321.94;;;22.39;52.61
54389;BME280;40975;50.390;8.640;2023-04-22T12:31:29;98320.03;;;22.23;54.28
54389;BME280;40975;50.390;8.640;2023-04-22T12:33:54;98316.56;;;22.10;50.82
54389;BME280;40975;50.390;8.640;2023-04-22T12:36:20;98318.41;;;22.21;51.31
54389;BME280;40975;50.390;8.640;2023-04-22T12:38:46;98316.91;;;22.43;50.95
54389;BME280;40975;50.390;8.640;2023-04-22T12:41:12;98313.66;;;22.29;51.48
54389;BME280;40975;50.390;8.640;2023-04-22T12:43:38;98308.31;;;22.17;48.92
54389;BME280;40975;50.390;8.640;2023-04-22T12:46:05;98305.16;;;22.20;48.33
54389;BME280;40975;50.390;8.640;2023-04-22T12:48:31;98298.56;;;21.87;49.33
54389;BME280;40975;50.390;8.640;2023-04-22T12:50:57;98306.00;;;22.09;47.64
54389;BME280;40975;50.390;8.640;2023-04-22T12:53:23;98298.16;;;22.24;45.54
54389;BME280;40975;50.390;8.640;2023-04-22T12:55:48;98288.56;;;22.62;47.56
54389;BME280;40975;50.390;8.640;2023-04-22T12:58:14;98296.94;;;22.61;44.57
54389;BME280;40975;50.390;8.640;2023-04-22T13:00:39;98295.84;;;22.45;45.18
54389;BME280;40975;50.390;8.640;2023-04-22T13:03:05;98292.31;;;23.12;45.47
54389;BME280;40975;50.390;8.640;2023-04-22T13:05:30;98294.19;;;23.12;43.27
54389;BME280;40975;50.390;8.640;2023-04-22T13:07:56;98287.94;;;22.72;43.92
54389;BME280;40975;50.390;8.640;2023-04-22T13:10:21;98292.47;;;23.06;45.76
54389;BME280;40975;50.390;8.640;2023-04-22T13:12:47;98295.25;;;23.11;43.55
54389;BME280;40975;50.390;8.640;2023-04-22T13:15:12;98301.78;;;22.76;43.66
54389;BME280;40975;50.390;8.640;2023-04-22T13:17:38;98294.66;;;22.52;42.27
54389;BME280;40975;50.390;8.640;2023-04-22T13:20:04;98281.75;;;22.43;43.23
54389;BME280;40975;50.390;8.640;2023-04-22T13:22:31;98287.06;;;22.38;42.11